createdAt,value
2023-03-15T00:00:11.795Z,1.00
2023-03-15T00:10:40.945Z,1.10
2023-03-15T00:20:49.134Z,0.90
2023-03-15T00:31:04.836Z,1.50
2023-03-15T00:41:14.031Z,1.30
2023-03-15T00:51:24.166Z,2.50
2023-03-15T01:01:32.617Z,3.80
2023-03-15T01:11:39.805Z,3.70
2023-03-15T01:21:46.232Z,3.60
2023-03-15T01:31:53.416Z,3.60
2023-03-15T01:42:00.545Z,5.40
2023-03-15T01:52:13.134Z,6.20
2023-03-15T02:02:22.978Z,12.50
2023-03-15T02:12:32.965Z,12.50
2023-03-15T02:22:45.795Z,11.90
2023-03-15T02:32:53.325Z,8.30
2023-03-15T02:43:04.699Z,3.00
2023-03-15T02:53:12.514Z,2.90
2023-03-15T03:03:19.659Z,4.70
2023-03-15T03:13:26.699Z,3.10
2023-03-15T03:23:35.109Z,3.30
2023-03-15T03:33:42.469Z,3.10
2023-03-15T03:43:49.660Z,5.50
2023-03-15T03:53:56.612Z,7.20
2023-03-15T04:04:03.625Z,5.30
2023-03-15T04:14:09.467Z,7.40
2023-03-15T04:24:17.166Z,13.90
2023-03-15T04:34:28.528Z,7.40
2023-03-15T04:44:35.531Z,5.30
2023-03-15T04:54:42.582Z,4.10
2023-03-15T05:04:49.771Z,6.70
2023-03-15T05:14:56.861Z,7.50
2023-03-15T05:25:04.017Z,5.30
2023-03-15T05:35:10.619Z,3.90
2023-03-15T05:45:17.815Z,4.20
2023-03-15T05:55:25.308Z,4.00
2023-03-15T06:05:32.528Z,4.50
2023-03-15T06:15:39.793Z,5.00
2023-03-15T06:25:47.094Z,4.00
2023-03-15T06:35:54.522Z,2.70
2023-03-15T06:46:01.787Z,3.80
2023-03-15T06:56:10.069Z,7.20
2023-03-15T07:06:17.320Z,6.20
2023-03-15T07:16:24.059Z,2.70
2023-03-15T07:26:31.306Z,3.20
2023-03-15T07:36:38.842Z,4.30
2023-03-15T07:46:47.365Z,3.30
2023-03-15T07:56:54.504Z,2.90
2023-03-15T08:07:01.840Z,3.00
2023-03-15T08:18:01.838Z,8.10
2023-03-15T08:28:08.164Z,6.90
2023-03-15T08:38:15.630Z,2.40
2023-03-15T08:48:22.866Z,5.00
2023-03-15T08:58:30.372Z,4.70
2023-03-15T09:08:37.904Z,6.40
2023-03-15T09:18:44.514Z,3.30
2023-03-15T09:38:57.506Z,3.70
2023-03-15T09:49:03.319Z,4.20
2023-03-15T09:59:13.751Z,3.30
2023-03-15T10:09:25.001Z,6.50
2023-03-15T10:19:31.195Z,3.00
2023-03-15T10:29:40.062Z,3.50
2023-03-15T10:39:47.967Z,5.00
2023-03-15T10:50:00.121Z,3.70
2023-03-15T11:00:05.825Z,3.60
2023-03-15T11:10:12.763Z,3.20
2023-03-15T11:20:22.131Z,3.00
2023-03-15T11:30:31.738Z,3.10
2023-03-15T11:40:40.303Z,4.50
2023-03-15T11:50:47.861Z,3.40
2023-03-15T12:00:55.147Z,4.10
2023-03-15T12:11:02.818Z,3.60
2023-03-15T12:21:15.685Z,5.70
2023-03-15T12:41:39.566Z,3.70
2023-03-15T12:51:58.180Z,6.40
2023-03-15T13:02:18.334Z,10.00
2023-03-15T13:12:24.287Z,4.20
2023-03-15T13:22:33.924Z,4.10
2023-03-15T13:32:41.370Z,2.80
2023-03-15T13:42:48.466Z,3.80
2023-03-15T13:52:57.874Z,2.60
2023-03-15T14:03:07.360Z,5.20
2023-03-15T14:23:31.637Z,8.10
2023-03-15T14:33:41.449Z,4.40
2023-03-15T14:43:47.714Z,3.10
2023-03-15T14:53:56.460Z,8.10
2023-03-15T15:04:05.239Z,31.10
2023-03-15T15:14:12.419Z,5.10
2023-03-15T15:24:23.336Z,4.20
2023-03-15T15:34:34.191Z,2.20
2023-03-15T15:44:41.359Z,4.00
2023-03-15T16:04:55.310Z,2.90
2023-03-15T16:15:03.868Z,7.20
2023-03-15T16:25:09.146Z,6.00
2023-03-15T16:35:16.841Z,9.10
2023-03-15T16:45:25.198Z,6.00
2023-03-15T16:55:29.878Z,9.60
2023-03-15T17:05:38.105Z,13.10
2023-03-15T17:15:45.418Z,26.50
2023-03-15T17:25:53.557Z,14.60
2023-03-15T17:36:01.738Z,24.60
2023-03-15T17:46:06.539Z,66.30
2023-03-15T17:56:13.817Z,17.70
2023-03-15T18:06:20.960Z,77.10
2023-03-15T18:16:28.456Z,12.00
2023-03-15T18:26:35.804Z,9.80
2023-03-15T18:36:41.177Z,23.10
2023-03-15T18:46:48.249Z,27.40
2023-03-15T18:56:55.504Z,35.80
2023-03-15T19:07:01.462Z,40.80
2023-03-15T19:17:07.797Z,20.80
2023-03-15T19:27:15.677Z,29.10
2023-03-15T19:37:23.068Z,27.20
2023-03-15T19:57:36.823Z,23.90
2023-03-15T20:07:45.324Z,32.90
2023-03-15T20:17:53.154Z,38.70
2023-03-15T20:28:00.316Z,33.50
2023-03-15T20:38:07.340Z,30.10
2023-03-15T20:48:14.031Z,28.00
2023-03-15T20:58:21.595Z,29.20
2023-03-15T21:08:27.989Z,45.00
2023-03-15T21:18:35.941Z,28.00
2023-03-15T21:28:43.715Z,33.90
2023-03-15T21:38:49.934Z,45.60
2023-03-15T21:48:57.160Z,38.20
2023-03-15T21:59:04.957Z,30.20
2023-03-15T22:09:11.385Z,34.90
2023-03-15T22:19:17.992Z,23.20
2023-03-15T22:29:25.150Z,19.90
2023-03-15T22:39:32.399Z,23.50
2023-03-15T22:49:38.256Z,26.90
2023-03-15T22:59:44.045Z,34.80
2023-03-15T23:09:51.691Z,29.20
2023-03-15T23:19:58.921Z,29.20
2023-03-15T23:30:05.984Z,29.60
2023-03-15T23:40:15.764Z,26.50
2023-03-15T23:50:24.280Z,25.50
